x

Diamond Shoals (41025) Wave Buoy

3:50 - Sun 4th Dec 2016 All times are EST. -5 hours from GMT.

  • Sig Wave height 3.9ft
  • Swell Direction
  • Peak Period 8s
  • Average Period 6s
  • Wind
    11mph, 18mph gusts
  • Sea Temp 75°f
  • Aire Temp 55°f
  • Sea Pressure 1023.5mb
  • Diamond Shoals
  • Diamond Shoals

More Historic Weather Station data

Upgrade to MSW Pro to gain access to the past 30 days of data for over 8000 Wavebouys and Weather Stations around the globe.

Join Pro

Comparision Forecast

View Surf forecast
   
dom 12/04 3:50 4ft 8s 6s 11 18 mph 1023.5mb 75f 55f
2:50 4.5ft 8s 7s 11 16 mph 1023mb 75f 55f
1:50 5ft 9s 7s 11 16 mph 1023mb 75f 55f
12:50 5ft 8s 7s 11 16 mph 1023.1mb 75f 55f
11:50 4.5ft 9s 6s 11 16 mph 1023.7mb 75f 55f
10:50 5ft 9s 7s 11 16 mph 1024.6mb 75f 55f
9:50 5ft 9s 7s 13 18 mph 1025.3mb 76f 55f
8:50 5ft 9s 7s 13 18 mph 1024.4mb 76f 55f
7:50 5ft 9s 7s 13 18 mph 1024mb 76f 55f
6:50 5.5ft 9s 7s 16 22 mph 1023.7mb 76f 55f
5:50 5ft 9s 6s 16 22 mph 1023.1mb 75f 54f
4:50 5ft 9s 6s 16 22 mph 1023.2mb 75f 54f
3:50 5ft 9s 6s 18 25 mph 1022.9mb 75f 53f
2:50 5ft 9s 6s 16 22 mph 1023.8mb 75f 53f
1:50 4.5ft 9s 6s 16 20 mph 1024.3mb 75f 52f
12:50 5ft 8s 6s 13 20 mph 1024.5mb 75f 53f
sáb 12/03 11:50 5ft 9s 6s 16 20 mph 1024.6mb 75f 53f
10:50 5.5ft 9s 7s 16 20 mph 1024.3mb 75f 53f
9:50 5ft 8s 6s 16 20 mph 1023.9mb 75f 58f
8:50 5ft 8s 6s 16 22 mph 1023.4mb 74f 60f
7:50 4.5ft 8s 5s 16 20 mph 1023.3mb 74f 64f
6:50 4.5ft 8s 5s 18 22 mph 1022.8mb 74f 63f
5:50 4.5ft 8s 5s 18 25 mph 1022.5mb 74f 65f
4:50 5ft 8s 5s 18 25 mph 1022.4mb 74f 64f
3:50 5ft 8s 5s 18 22 mph 1022.5mb 74f 65f
2:50 5ft 8s 5s 18 22 mph 1021.6mb 74f 59f
1:50 5ft 8s 5s 18 25 mph 1021.6mb 74f 60f
12:50 5ft 8s 5s 20 25 mph 1022.2mb 74f 53f
11:50 5ft 8s 5s 20 25 mph 1022.2mb 74f 55f
10:50 5ft 6s 5s 22 29 mph 1023.1mb 74f 65f
9:50 5ft 6s 5s 22 29 mph 1023.1mb 74f 66f
8:50 5.5ft 6s 5s 27 34 mph 1022mb 74f -
7:50 5ft 6s 5s 27 34 mph 1021.4mb 75f 51f
6:50 6ft 6s 5s 25 34 mph 1021.7mb 75f 50f
5:50 5.5ft 6s 5s 25 29 mph 1020.9mb 75f 50f
4:50 5ft 5s 5s 27 31 mph 1020.2mb 75f 52f
3:50 5ft 6s 5s 25 29 mph 1019.7mb 74f 53f
2:50 5ft 5s 4s 27 31 mph 1019.6mb 75f 53f
1:50 4.5ft 4s 4s 27 34 mph 1019.2mb 74f 56f
12:50 4.5ft 4s 4s 25 31 mph 1018.9mb 75f 57f
vie 12/02 11:50 3.5ft 4s 4s 25 34 mph 1019.6mb 75f 58f
10:50 3.5ft 4s 4s 22 27 mph 1019.8mb 75f 58f
9:50 4ft 8s 4s 22 27 mph 1019.5mb 75f 58f
8:50 3.5ft 7s 4s 20 27 mph 1019.4mb 75f 57f
7:50 3.5ft 7s 4s 20 27 mph 1018.8mb 75f 57f
6:50 3.5ft 7s 5s 18 22 mph 1018.7mb 76f 56f
5:50 3ft 7s 5s 16 20 mph 1018.7mb 76f 56f
4:50 3ft 7s 5s 13 20 mph 1018mb 76f 55f
3:50 3.5ft 7s 5s 11 18 mph 1018.2mb 76f 55f
2:50 3.5ft 6s 6s 11 16 mph 1018mb 77f 55f
1:50 3.5ft 7s 5s 11 18 mph 1017.6mb 77f 55f
12:50 3.5ft 7s 5s 13 18 mph 1018mb 77f 56f
11:50 3.5ft 7s 5s 11 18 mph 1018.2mb 77f 56f
10:50 3.5ft 8s 5s 13 20 mph 1018.7mb 76f 56f
9:50 3.5ft 8s 5s 13 18 mph 1019mb 76f 57f
8:50 3.5ft 8s 5s 16 22 mph 1018.3mb 76f 57f
7:50 3.5ft 9s 5s 16 22 mph 1017.6mb 76f 57f
6:50 3.5ft 8s 5s 16 22 mph 1016.7mb 76f 58f
5:50 3.5ft 8s 5s 16 20 mph 1016.2mb 76f 58f
3:50 4ft 7s 5s 16 20 mph 1015mb 75f 58f
2:50 3.5ft 8s 5s 18 20 mph 1014.7mb 75f 59f
1:50 4ft 8s 5s 18 22 mph 1014.4mb 75f 61f
12:50 4ft 8s 5s 20 25 mph 1013.8mb 76f 62f
jue 12/01 11:50 4.5ft 8s 5s 20 25 mph 1013.6mb 76f 62f
10:50 4.5ft 8s 5s 20 25 mph 1013.4mb 75f 62f
9:50 4.5ft 8s 5s 20 22 mph 1012.8mb 75f 64f
8:50 4ft 8s 5s 18 20 mph 1012.5mb 75f 65f
7:50 4.5ft 8s 6s 16 20 mph 1011.9mb 75f 66f
6:50 4.5ft 8s 6s 16 18 mph 1011.2mb 75f 66f
5:50 4.5ft 8s 5s 11 16 mph 1010.7mb 75f 68f
4:50 4.5ft 8s 6s 13 18 mph 1009.8mb 75f 68f
3:50 5.5ft 8s 5s 16 18 mph 1009.4mb 72f 68f
2:50 5.5ft 8s 5s 16 20 mph 1009mb 71f 68f
1:50 6ft 8s 5s 18 20 mph 1008.7mb 71f 69f
11:50 7ft 8s 6s 20 25 mph 1009.1mb 71f 69f
10:50 8ft 8s 6s 20 22 mph 1009.6mb 71f 69f
9:50 8ft 8s 6s 22 29 mph 1009.5mb 71f 70f
8:50 8ft 7s 6s 25 29 mph 1009mb 71f 74f
7:50 9ft 8s 6s 29 36 mph 1008.4mb 72f 75f
6:50 8ft 8s 6s 29 36 mph 1007.5mb 72f 78f
5:50 9ft 8s 6s 29 36 mph 1007mb 72f 80f
4:50 7.5ft 8s 5s 29 36 mph 1006.3mb 72f 82f
3:50 8ft 8s 6s 31 36 mph 1006.6mb 73f 76f
2:50 8ft 8s 6s 31 36 mph 1007mb 73f 75f
1:50 8ft 8s 6s 27 31 mph 1007.7mb 74f 78f
12:50 7.5ft 7s 6s 27 31 mph 1008.2mb 75f 79f
mié 11/30 11:50 7ft 8s 6s 29 34 mph 1009.1mb 76f 79f
10:50 8ft 8s 6s 29 34 mph 1009.5mb 76f 78f